createdAt,value
2022-08-03T00:01:50.210Z,21.33
2022-08-03T00:04:17.124Z,21.40
2022-08-03T00:06:44.244Z,21.40
2022-08-03T00:09:11.128Z,21.32
2022-08-03T00:11:38.656Z,21.31
2022-08-03T00:14:06.763Z,21.29
2022-08-03T00:16:33.663Z,21.20
2022-08-03T00:19:01.353Z,21.25
2022-08-03T00:21:29.234Z,21.06
2022-08-03T00:23:56.573Z,21.11
2022-08-03T00:26:23.488Z,21.08
2022-08-03T00:28:50.865Z,21.03
2022-08-03T00:31:30.954Z,21.00
2022-08-03T00:34:04.730Z,20.98
2022-08-03T00:36:33.052Z,20.94
2022-08-03T00:38:59.902Z,20.95
2022-08-03T00:41:26.735Z,21.05
2022-08-03T00:43:53.573Z,21.05
2022-08-03T00:46:22.333Z,20.86
2022-08-03T00:48:53.264Z,21.00
2022-08-03T00:51:24.124Z,20.92
2022-08-03T00:53:51.366Z,20.82
2022-08-03T00:56:18.678Z,20.78
2022-08-03T00:58:46.816Z,20.85
2022-08-03T01:01:14.524Z,20.83
2022-08-03T01:03:42.158Z,20.71
2022-08-03T01:06:36.474Z,20.73
2022-08-03T01:09:23.579Z,20.76
2022-08-03T01:12:06.048Z,20.72
2022-08-03T01:14:46.586Z,20.74
2022-08-03T01:17:47.251Z,20.66
2022-08-03T01:20:15.619Z,20.65
2022-08-03T01:23:28.928Z,20.59
2022-08-03T01:26:14.421Z,20.63
2022-08-03T01:29:03.963Z,20.57
2022-08-03T01:32:58.359Z,20.44
2022-08-03T01:34:36.013Z,20.43
2022-08-03T01:37:06.173Z,20.54
2022-08-03T01:39:35.187Z,20.41
2022-08-03T01:42:06.429Z,20.49
2022-08-03T01:44:38.931Z,20.47
2022-08-03T01:47:07.929Z,20.45
2022-08-03T01:49:39.588Z,20.35
2022-08-03T01:52:08.491Z,20.34
2022-08-03T01:54:38.203Z,20.35
2022-08-03T01:57:05.895Z,20.43
2022-08-03T01:59:35.695Z,20.39
2022-08-03T02:02:28.717Z,20.30
2022-08-03T02:04:54.501Z,20.34
2022-08-03T02:07:21.815Z,20.30
2022-08-03T02:09:52.758Z,20.35
2022-08-03T02:12:21.269Z,20.28
2022-08-03T02:14:49.836Z,20.22
2022-08-03T02:17:16.784Z,20.17
2022-08-03T02:19:44.772Z,20.25
2022-08-03T02:22:14.499Z,20.21
2022-08-03T02:24:41.689Z,20.25
2022-08-03T02:27:34.547Z,20.25
2022-08-03T02:30:10.487Z,20.23
2022-08-03T02:32:40.588Z,20.27
2022-08-03T02:35:12.680Z,20.19
2022-08-03T02:37:49.620Z,20.18
2022-08-03T02:40:20.443Z,20.14
2022-08-03T02:42:50.236Z,20.08
2022-08-03T02:45:20.337Z,20.16
2022-08-03T02:47:54.100Z,20.05
2022-08-03T02:50:23.349Z,20.09
2022-08-03T02:52:52.299Z,20.05
2022-08-03T02:55:22.457Z,20.08
2022-08-03T02:57:50.303Z,20.02
2022-08-03T03:00:27.227Z,20.02
2022-08-03T03:03:02.684Z,19.93
2022-08-03T03:05:52.602Z,19.97
2022-08-03T03:08:28.254Z,19.92
2022-08-03T03:11:00.165Z,19.98
2022-08-03T03:13:29.241Z,19.96
2022-08-03T03:16:00.854Z,19.73
2022-08-03T03:18:34.927Z,19.86
2022-08-03T03:21:04.574Z,19.91
2022-08-03T03:23:32.260Z,19.79
2022-08-03T03:26:02.244Z,19.85
2022-08-03T03:28:29.507Z,19.86
2022-08-03T03:30:56.499Z,19.84
2022-08-03T03:33:23.699Z,19.77
2022-08-03T03:35:51.898Z,19.75
2022-08-03T03:38:20.089Z,19.73
2022-08-03T03:40:47.338Z,19.68
2022-08-03T03:43:14.341Z,19.64
2022-08-03T03:45:42.965Z,19.65
2022-08-03T03:48:10.575Z,19.62
2022-08-03T03:50:40.854Z,19.65
2022-08-03T03:53:11.428Z,19.63
2022-08-03T03:55:57.804Z,19.55
2022-08-03T03:58:25.802Z,19.65
2022-08-03T04:00:53.886Z,19.48
2022-08-03T04:03:21.004Z,19.55
2022-08-03T04:06:06.234Z,19.48
2022-08-03T04:08:51.429Z,19.59
2022-08-03T04:11:27.470Z,19.57
2022-08-03T04:14:23.341Z,19.56
2022-08-03T04:16:55.895Z,19.55
2022-08-03T04:19:37.963Z,19.57
2022-08-03T04:22:10.134Z,19.60
2022-08-03T04:24:48.986Z,19.59
2022-08-03T04:27:21.548Z,19.54
2022-08-03T04:29:52.124Z,19.63
2022-08-03T04:32:20.719Z,19.63
2022-08-03T04:34:47.852Z,19.59
2022-08-03T04:37:47.897Z,19.55
2022-08-03T04:40:23.056Z,19.61
2022-08-03T04:42:50.464Z,19.60
2022-08-03T04:45:19.272Z,19.54
2022-08-03T04:47:46.207Z,19.54
2022-08-03T04:50:15.995Z,19.59
2022-08-03T04:52:46.548Z,19.46
2022-08-03T04:55:13.388Z,19.59
2022-08-03T04:57:40.214Z,19.59
2022-08-03T05:00:07.852Z,19.47
2022-08-03T05:02:35.070Z,19.57
2022-08-03T05:05:01.903Z,19.57
2022-08-03T05:07:35.925Z,19.44
2022-08-03T05:10:14.689Z,19.52
2022-08-03T05:12:42.527Z,19.67
2022-08-03T05:15:10.169Z,19.57
2022-08-03T05:17:37.003Z,19.45
2022-08-03T05:20:05.134Z,19.67
2022-08-03T05:22:31.993Z,19.71
2022-08-03T05:24:58.851Z,19.70
2022-08-03T05:27:25.798Z,19.70
2022-08-03T05:29:52.680Z,19.68
2022-08-03T05:32:19.715Z,19.75
2022-08-03T05:34:46.617Z,19.77
2022-08-03T05:37:13.559Z,19.75
2022-08-03T05:39:40.455Z,19.78
2022-08-03T05:42:07.319Z,19.82
2022-08-03T05:44:34.316Z,19.75
2022-08-03T05:47:01.144Z,19.83
2022-08-03T05:49:28.107Z,19.83
2022-08-03T05:52:00.261Z,19.83
2022-08-03T05:54:55.998Z,19.95
2022-08-03T05:57:25.793Z,19.91
2022-08-03T05:59:54.800Z,19.97
2022-08-03T06:02:26.561Z,19.95
2022-08-03T06:04:53.411Z,20.09
2022-08-03T06:07:20.233Z,20.11
2022-08-03T06:10:34.196Z,20.11
2022-08-03T06:12:36.794Z,20.14
2022-08-03T06:15:07.811Z,20.16
2022-08-03T06:17:46.554Z,20.17
2022-08-03T06:20:13.989Z,20.29
2022-08-03T06:22:50.600Z,20.21
2022-08-03T06:25:19.368Z,20.24
2022-08-03T06:27:48.251Z,20.41
2022-08-03T06:30:20.886Z,20.47
2022-08-03T06:32:51.902Z,20.44
2022-08-03T06:35:19.831Z,20.44
2022-08-03T06:37:49.323Z,20.54
2022-08-03T06:40:21.728Z,20.60
2022-08-03T06:42:51.330Z,20.54
2022-08-03T06:45:18.571Z,20.65
2022-08-03T06:47:45.555Z,20.69
2022-08-03T06:50:16.974Z,20.72
2022-08-03T06:52:45.417Z,20.74
2022-08-03T06:55:12.377Z,20.69
2022-08-03T06:57:39.239Z,20.74
2022-08-03T07:00:11.830Z,20.76
2022-08-03T07:02:42.682Z,20.80
2022-08-03T07:05:10.495Z,20.87
2022-08-03T07:07:38.231Z,20.95
2022-08-03T07:10:06.585Z,20.95
2022-08-03T07:12:35.377Z,21.00
2022-08-03T07:15:03.591Z,21.02
2022-08-03T07:17:34.522Z,21.07
2022-08-03T07:20:04.623Z,21.19
2022-08-03T07:22:31.530Z,21.23
2022-08-03T07:24:58.410Z,21.27
2022-08-03T07:27:27.017Z,21.20
2022-08-03T07:29:54.809Z,21.29
2022-08-03T07:32:21.674Z,21.32
2022-08-03T07:34:48.474Z,21.30
2022-08-03T07:37:15.461Z,21.38
2022-08-03T07:39:42.290Z,21.43
2022-08-03T07:42:09.090Z,21.50
2022-08-03T07:44:36.119Z,21.43
2022-08-03T07:47:03.424Z,21.54
2022-08-03T07:49:30.729Z,21.64
2022-08-03T07:52:21.328Z,21.64
2022-08-03T07:54:55.052Z,21.75
2022-08-03T07:57:21.875Z,21.78
2022-08-03T08:00:01.361Z,21.76
2022-08-03T08:02:29.350Z,21.86
2022-08-03T08:04:56.167Z,21.85
2022-08-03T08:07:23.239Z,21.91
2022-08-03T08:09:50.033Z,21.89
2022-08-03T08:12:17.158Z,22.03
2022-08-03T08:14:46.653Z,22.00
2022-08-03T08:17:14.443Z,22.12
2022-08-03T08:19:43.812Z,22.17
2022-08-03T08:22:19.731Z,22.55
2022-08-03T08:24:56.508Z,22.62
2022-08-03T08:27:23.882Z,22.62
2022-08-03T08:29:54.222Z,22.74
2022-08-03T08:32:23.443Z,22.76
2022-08-03T08:34:50.894Z,22.82
2022-08-03T08:37:17.910Z,22.97
2022-08-03T08:39:44.743Z,22.92
2022-08-03T08:42:11.776Z,23.08
2022-08-03T08:44:39.247Z,23.13
2022-08-03T08:47:07.960Z,23.40
2022-08-03T08:49:36.534Z,23.61
2022-08-03T08:52:25.023Z,23.63
2022-08-03T08:55:00.167Z,23.61
2022-08-03T08:57:42.742Z,23.82
2022-08-03T09:00:14.403Z,24.04
2022-08-03T09:02:42.889Z,24.24
2022-08-03T09:05:15.503Z,24.24
2022-08-03T09:07:43.557Z,24.36
2022-08-03T09:10:13.827Z,24.42
2022-08-03T09:12:47.326Z,24.34
2022-08-03T09:15:29.302Z,24.26
2022-08-03T09:17:59.202Z,24.29
2022-08-03T09:20:30.092Z,24.58
2022-08-03T09:23:44.662Z,24.55
2022-08-03T09:26:01.663Z,24.71
2022-08-03T09:28:58.051Z,24.90
2022-08-03T09:31:43.289Z,24.95
2022-08-03T09:34:16.585Z,24.99
2022-08-03T09:36:49.142Z,25.56
2022-08-03T09:39:40.548Z,25.71
2022-08-03T09:42:14.865Z,25.78
2022-08-03T09:44:45.203Z,25.97
2022-08-03T09:47:14.677Z,26.42
2022-08-03T09:49:57.337Z,26.02
2022-08-03T09:52:38.614Z,25.82
2022-08-03T09:56:30.746Z,25.78
2022-08-03T09:58:11.294Z,25.77
2022-08-03T10:01:00.321Z,26.20
2022-08-03T10:03:30.291Z,26.07
2022-08-03T10:05:59.938Z,25.92
2022-08-03T10:08:27.211Z,26.03
2022-08-03T10:10:54.677Z,26.70
2022-08-03T10:13:23.141Z,26.55
2022-08-03T10:16:21.483Z,26.84
2022-08-03T10:18:37.397Z,26.93
2022-08-03T10:21:08.691Z,26.89
2022-08-03T10:23:38.411Z,26.84
2022-08-03T10:26:07.893Z,26.75
2022-08-03T10:28:48.156Z,26.65
2022-08-03T10:31:18.570Z,26.69
2022-08-03T10:33:53.503Z,26.71
2022-08-03T10:36:25.533Z,26.64
2022-08-03T10:38:53.709Z,26.67
2022-08-03T10:41:22.317Z,26.66
2022-08-03T10:44:20.094Z,26.72
2022-08-03T10:46:50.788Z,27.15
2022-08-03T10:49:34.335Z,27.14
2022-08-03T10:52:12.893Z,27.42
2022-08-03T10:55:03.220Z,27.40
2022-08-03T10:57:58.277Z,27.95
2022-08-03T11:00:28.047Z,28.34
2022-08-03T11:03:14.122Z,28.36
2022-08-03T11:05:49.258Z,28.41
2022-08-03T11:08:19.429Z,28.28
2022-08-03T11:10:47.831Z,28.36
2022-08-03T11:13:22.096Z,28.31
2022-08-03T11:15:52.341Z,28.17
2022-08-03T11:18:19.445Z,28.29
2022-08-03T11:20:56.328Z,29.13
2022-08-03T11:24:04.335Z,30.36
2022-08-03T11:26:33.141Z,32.56
2022-08-03T11:29:31.143Z,35.27
2022-08-03T11:31:58.244Z,37.35
2022-08-03T11:34:25.803Z,38.52
2022-08-03T11:37:29.936Z,39.91
2022-08-03T11:40:00.445Z,40.92
2022-08-03T11:42:29.226Z,41.96
2022-08-03T11:45:00.606Z,42.47
2022-08-03T11:47:29.942Z,42.72
2022-08-03T11:50:00.614Z,42.52
2022-08-03T11:52:34.625Z,43.32
2022-08-03T11:55:01.957Z,43.60
2022-08-03T11:59:00.903Z,46.80
2022-08-03T12:00:29.422Z,44.16
2022-08-03T12:03:00.051Z,46.72
2022-08-03T12:05:54.674Z,45.12
2022-08-03T12:08:27.801Z,44.34
2022-08-03T12:10:57.476Z,44.38
2022-08-03T12:14:10.710Z,45.03
2022-08-03T12:16:24.745Z,45.82
2022-08-03T12:19:06.597Z,45.63
2022-08-03T12:21:33.541Z,42.59
2022-08-03T12:24:05.242Z,41.02
2022-08-03T12:26:54.496Z,39.71
2022-08-03T12:29:26.582Z,38.66
2022-08-03T12:31:53.411Z,37.57
2022-08-03T12:34:20.229Z,37.04
2022-08-03T12:36:59.263Z,36.32
2022-08-03T12:39:30.798Z,35.97
2022-08-03T12:41:58.071Z,35.71
2022-08-03T12:44:43.121Z,35.19
2022-08-03T12:47:11.797Z,34.89
2022-08-03T12:49:53.854Z,35.39
2022-08-03T12:52:22.718Z,35.75
2022-08-03T12:54:57.930Z,35.16
2022-08-03T12:57:24.905Z,34.74
2022-08-03T12:59:55.798Z,34.28
2022-08-03T13:02:27.617Z,34.05
2022-08-03T13:04:55.334Z,33.75
2022-08-03T13:07:23.377Z,33.59
2022-08-03T13:09:53.705Z,33.48
2022-08-03T13:12:26.431Z,33.15
2022-08-03T13:14:58.992Z,33.02
2022-08-03T13:17:27.114Z,33.06
2022-08-03T13:19:54.119Z,33.36
2022-08-03T13:22:28.821Z,32.82
2022-08-03T13:24:57.517Z,32.60
2022-08-03T13:28:04.013Z,32.32
2022-08-03T13:30:12.763Z,32.22
2022-08-03T13:32:40.248Z,32.07
2022-08-03T13:35:08.828Z,31.84
2022-08-03T13:37:37.138Z,31.88
2022-08-03T13:40:07.213Z,31.82
2022-08-03T13:42:35.931Z,31.78
2022-08-03T13:45:04.086Z,31.51
2022-08-03T13:47:30.979Z,32.26
2022-08-03T13:50:01.664Z,32.46
2022-08-03T13:52:34.843Z,32.40
2022-08-03T13:55:04.649Z,32.28
2022-08-03T13:58:05.235Z,32.12
2022-08-03T14:00:27.921Z,31.87
2022-08-03T14:03:17.392Z,31.70
2022-08-03T14:05:44.447Z,31.52
2022-08-03T14:08:12.219Z,31.63
2022-08-03T14:10:43.400Z,31.52
2022-08-03T14:13:18.005Z,31.60
2022-08-03T14:15:50.330Z,31.59
2022-08-03T14:18:28.325Z,31.52
2022-08-03T14:21:05.975Z,31.52
2022-08-03T14:23:35.341Z,31.57
2022-08-03T14:26:02.175Z,31.55
2022-08-03T14:28:29.025Z,31.68
2022-08-03T14:30:56.745Z,31.57
2022-08-03T14:33:24.358Z,31.47
2022-08-03T14:35:52.242Z,31.47
2022-08-03T14:38:20.377Z,31.40
2022-08-03T14:40:47.960Z,31.37
2022-08-03T14:43:15.431Z,31.28
2022-08-03T14:45:42.896Z,31.22
2022-08-03T14:50:33.982Z,31.27
2022-08-03T14:50:56.822Z,31.29
2022-08-03T14:53:24.073Z,31.32
2022-08-03T14:55:52.825Z,31.23
2022-08-03T14:58:22.103Z,31.20
2022-08-03T15:00:51.159Z,31.17
2022-08-03T15:03:22.989Z,31.21
2022-08-03T15:05:55.265Z,31.21
2022-08-03T15:08:23.838Z,31.22
2022-08-03T15:10:50.982Z,31.29
2022-08-03T15:13:18.395Z,31.49
2022-08-03T15:15:45.354Z,31.47
2022-08-03T15:18:12.188Z,31.65
2022-08-03T15:20:44.920Z,31.71
2022-08-03T15:23:15.608Z,31.52
2022-08-03T15:26:03.829Z,31.47
2022-08-03T15:28:32.266Z,31.54
2022-08-03T15:30:59.245Z,31.52
2022-08-03T15:33:26.128Z,31.42
2022-08-03T15:35:53.325Z,31.40
2022-08-03T15:38:23.016Z,31.43
2022-08-03T15:40:56.075Z,31.43
2022-08-03T15:43:23.569Z,31.27
2022-08-03T15:46:18.995Z,31.33
2022-08-03T15:48:37.915Z,31.38
2022-08-03T15:51:05.725Z,31.38
2022-08-03T15:53:33.573Z,31.73
2022-08-03T15:56:04.225Z,31.88
2022-08-03T15:59:10.003Z,31.93
2022-08-03T16:01:21.297Z,32.09
2022-08-03T16:03:48.207Z,32.19
2022-08-03T16:06:15.120Z,32.29
2022-08-03T16:08:42.075Z,32.05
2022-08-03T16:11:09.273Z,32.05
2022-08-03T16:14:12.339Z,32.17
2022-08-03T16:16:23.293Z,31.91
2022-08-03T16:18:50.159Z,32.13
2022-08-03T16:21:20.000Z,31.98
2022-08-03T16:23:49.727Z,32.05
2022-08-03T16:26:18.117Z,32.08
2022-08-03T16:28:44.936Z,32.03
2022-08-03T16:31:11.738Z,31.86
2022-08-03T16:33:38.650Z,32.13
2022-08-03T16:36:05.717Z,32.19
2022-08-03T16:38:32.517Z,32.03
2022-08-03T16:40:59.575Z,32.05
2022-08-03T16:43:26.506Z,32.09
2022-08-03T16:45:53.352Z,31.92
2022-08-03T16:48:20.277Z,31.83
2022-08-03T16:50:47.424Z,31.83
2022-08-03T16:53:16.788Z,31.86
2022-08-03T16:55:51.809Z,31.77
2022-08-03T16:58:24.482Z,31.84
2022-08-03T17:01:24.182Z,31.79
2022-08-03T17:04:02.963Z,31.76
2022-08-03T17:06:37.601Z,31.72
2022-08-03T17:09:13.389Z,31.70
2022-08-03T17:11:47.098Z,31.64
2022-08-03T17:14:21.774Z,32.00
2022-08-03T17:16:53.055Z,31.91
2022-08-03T17:19:24.848Z,31.98
2022-08-03T17:22:04.883Z,31.97
2022-08-03T17:24:42.189Z,31.85
2022-08-03T17:27:23.129Z,31.90
2022-08-03T17:30:14.238Z,32.00
2022-08-03T17:32:56.603Z,32.05
2022-08-03T17:35:24.528Z,31.98
2022-08-03T17:38:03.987Z,32.06
2022-08-03T17:40:33.677Z,31.97
2022-08-03T17:43:02.136Z,31.91
2022-08-03T17:45:52.829Z,31.81
2022-08-03T17:48:24.838Z,31.72
2022-08-03T17:51:01.008Z,31.69
2022-08-03T17:53:33.156Z,31.77
2022-08-03T17:56:44.683Z,31.67
2022-08-03T17:59:50.689Z,31.52
2022-08-03T18:03:14.755Z,31.49
2022-08-03T18:06:10.468Z,31.48
2022-08-03T18:08:46.611Z,31.55
2022-08-03T18:11:21.377Z,31.51
2022-08-03T18:14:20.859Z,31.36
2022-08-03T18:17:05.964Z,31.18
2022-08-03T18:20:02.407Z,31.06
2022-08-03T18:22:30.634Z,31.00
2022-08-03T18:24:59.219Z,30.98
2022-08-03T18:27:42.497Z,31.00
2022-08-03T18:30:14.066Z,30.93
2022-08-03T18:33:00.707Z,30.76
2022-08-03T18:35:52.881Z,30.64
2022-08-03T18:38:18.778Z,30.46
2022-08-03T18:40:48.643Z,30.41
2022-08-03T18:43:17.534Z,30.32
2022-08-03T18:45:56.131Z,30.22
2022-08-03T18:48:36.208Z,30.05
2022-08-03T18:51:28.534Z,29.94
2022-08-03T18:54:57.856Z,29.73
2022-08-03T18:57:02.041Z,29.57
2022-08-03T19:00:10.476Z,29.43
2022-08-03T19:02:48.971Z,29.21
2022-08-03T19:05:23.502Z,29.11
2022-08-03T19:08:20.426Z,29.07
2022-08-03T19:11:00.848Z,28.90
2022-08-03T19:13:50.521Z,28.76
2022-08-03T19:16:39.509Z,28.74
2022-08-03T19:19:14.389Z,28.55
2022-08-03T19:21:41.854Z,28.48
2022-08-03T19:24:10.302Z,28.43
2022-08-03T19:26:39.915Z,28.43
2022-08-03T19:29:14.851Z,28.28
2022-08-03T19:31:58.823Z,28.23
2022-08-03T19:34:32.725Z,28.20
2022-08-03T19:36:59.946Z,28.07
2022-08-03T19:39:27.128Z,28.03
2022-08-03T19:42:08.027Z,27.91
2022-08-03T19:44:43.944Z,27.78
2022-08-03T19:47:20.058Z,27.76
2022-08-03T19:50:05.859Z,27.66
2022-08-03T19:52:40.235Z,27.50
2022-08-03T19:55:12.101Z,27.51
2022-08-03T19:57:43.596Z,27.45
2022-08-03T20:00:13.981Z,27.32
2022-08-03T20:02:41.473Z,27.26
2022-08-03T20:05:15.495Z,27.20
2022-08-03T20:07:47.734Z,27.14
2022-08-03T20:10:17.593Z,27.07
2022-08-03T20:12:46.779Z,27.07
2022-08-03T20:15:14.523Z,26.92
2022-08-03T20:17:56.951Z,26.92
2022-08-03T20:20:37.323Z,26.77
2022-08-03T20:23:19.332Z,26.79
2022-08-03T20:25:58.411Z,26.61
2022-08-03T20:28:29.428Z,26.68
2022-08-03T20:31:01.897Z,26.62
2022-08-03T20:33:46.642Z,26.58
2022-08-03T20:36:18.498Z,26.54
2022-08-03T20:38:47.867Z,26.45
2022-08-03T20:41:18.006Z,26.31
2022-08-03T20:43:45.988Z,26.40
2022-08-03T20:46:29.049Z,26.31
2022-08-03T20:49:03.964Z,26.40
2022-08-03T20:51:49.121Z,26.35
2022-08-03T20:54:23.089Z,26.13
2022-08-03T20:57:03.691Z,26.26
2022-08-03T20:59:47.390Z,26.14
2022-08-03T21:02:30.515Z,26.14
2022-08-03T21:05:08.679Z,26.00
2022-08-03T21:08:05.409Z,25.97
2022-08-03T21:10:37.922Z,25.99
2022-08-03T21:13:19.092Z,25.76
2022-08-03T21:16:03.319Z,25.86
2022-08-03T21:18:50.154Z,25.72
2022-08-03T21:21:21.826Z,25.70
2022-08-03T21:23:55.040Z,25.63
2022-08-03T21:26:25.477Z,25.56
2022-08-03T21:28:57.014Z,25.50
2022-08-03T21:31:26.687Z,25.54
2022-08-03T21:34:03.600Z,25.35
2022-08-03T21:36:35.509Z,25.44
2022-08-03T21:39:08.668Z,25.39
2022-08-03T21:41:38.230Z,25.20
2022-08-03T21:44:06.472Z,25.25
2022-08-03T21:46:39.572Z,25.27
2022-08-03T21:50:07.692Z,25.25
2022-08-03T21:52:06.897Z,25.14
2022-08-03T21:54:43.233Z,25.05
2022-08-03T21:57:24.252Z,25.07
2022-08-03T22:00:13.129Z,24.97
2022-08-03T22:02:42.750Z,24.91
2022-08-03T22:05:10.070Z,24.79
2022-08-03T22:07:43.497Z,24.83
2022-08-03T22:10:12.196Z,24.86
2022-08-03T22:12:40.360Z,24.79
2022-08-03T22:15:11.346Z,24.76
2022-08-03T22:17:55.916Z,24.73
2022-08-03T22:20:24.208Z,24.61
2022-08-03T22:22:57.065Z,24.49
2022-08-03T22:25:33.827Z,24.43
2022-08-03T22:28:06.960Z,24.49
2022-08-03T22:30:34.779Z,24.40
2022-08-03T22:33:05.038Z,24.35
2022-08-03T22:35:47.320Z,24.32
2022-08-03T22:38:16.110Z,24.25
2022-08-03T22:40:44.042Z,24.17
2022-08-03T22:43:11.007Z,24.18
2022-08-03T22:46:05.979Z,24.16
2022-08-03T22:48:27.451Z,24.09
2022-08-03T22:53:23.860Z,23.92
2022-08-03T22:55:52.081Z,23.99
2022-08-03T22:58:20.880Z,23.90
2022-08-03T23:01:02.091Z,23.89
2022-08-03T23:04:00.341Z,23.90
2022-08-03T23:06:23.918Z,23.80
2022-08-03T23:08:50.949Z,23.83
2022-08-03T23:11:18.882Z,23.71
2022-08-03T23:13:51.704Z,23.70
2022-08-03T23:16:28.737Z,23.66
2022-08-03T23:18:59.447Z,23.64
2022-08-03T23:22:00.685Z,23.54
2022-08-03T23:24:26.181Z,23.57
2022-08-03T23:26:57.120Z,23.53
2022-08-03T23:29:24.605Z,23.44
2022-08-03T23:31:54.680Z,23.45
2022-08-03T23:34:41.746Z,23.36
2022-08-03T23:37:09.688Z,23.46
2022-08-03T23:39:38.273Z,23.45
2022-08-03T23:42:06.111Z,23.43
2022-08-03T23:44:36.339Z,23.41
2022-08-03T23:47:03.194Z,23.31
2022-08-03T23:49:30.108Z,23.29
2022-08-03T23:52:17.917Z,23.15
2022-08-03T23:55:03.479Z,23.18
2022-08-03T23:58:00.378Z,23.07
